createdAt,value
2018-02-04T00:00:11.618Z,-0.8
2018-02-04T00:01:31.481Z,-0.8
2018-02-04T00:02:51.384Z,-0.8
2018-02-04T00:04:11.246Z,-0.8
2018-02-04T00:05:31.152Z,-0.8
2018-02-04T00:06:53.518Z,-0.8
2018-02-04T00:08:23.505Z,-0.9
2018-02-04T00:09:50.960Z,-0.9
2018-02-04T00:11:13.335Z,-0.9
2018-02-04T00:12:38.283Z,-0.9
2018-02-04T00:13:58.106Z,-0.9
2018-02-04T00:15:17.942Z,-0.9
2018-02-04T00:16:37.827Z,-0.9
2018-02-04T00:17:57.687Z,-0.9
2018-02-04T00:19:20.043Z,-0.9
2018-02-04T00:20:42.399Z,-0.9
2018-02-04T00:22:09.804Z,-0.8
2018-02-04T00:23:29.677Z,-0.8
2018-02-04T00:24:57.098Z,-0.8
2018-02-04T00:26:16.984Z,-0.8
2018-02-04T00:27:41.893Z,-0.8
2018-02-04T00:29:06.817Z,-0.8
2018-02-04T00:30:26.702Z,-0.8
2018-02-04T00:31:46.619Z,-0.9
2018-02-04T00:33:09.033Z,-0.9
2018-02-04T00:34:31.408Z,-0.9
2018-02-04T00:35:58.838Z,-0.9
2018-02-04T00:37:18.713Z,-0.9
2018-02-04T00:38:46.160Z,-0.9
2018-02-04T00:40:13.604Z,-0.9
2018-02-04T00:41:41.070Z,-0.9
2018-02-04T00:43:03.418Z,-0.9
2018-02-04T00:44:28.312Z,-0.8
2018-02-04T00:45:53.202Z,-0.8
2018-02-04T00:47:13.068Z,-0.7
2018-02-04T00:48:32.885Z,-0.7
2018-02-04T00:49:55.245Z,-0.7
2018-02-04T00:51:15.078Z,-0.7
2018-02-04T00:52:34.905Z,-0.7
2018-02-04T00:53:54.754Z,-0.7
2018-02-04T00:55:14.606Z,-0.6
2018-02-04T00:56:34.457Z,-0.5
2018-02-04T00:57:56.813Z,-0.5
2018-02-04T00:59:16.680Z,-0.5
2018-02-04T01:00:36.520Z,-0.5
2018-02-04T01:01:56.382Z,-0.5
2018-02-04T01:03:16.227Z,-0.5
2018-02-04T01:04:41.195Z,-0.5
2018-02-04T01:06:01.048Z,-0.5
2018-02-04T01:07:23.422Z,-0.5
2018-02-04T01:08:43.306Z,-0.5
2018-02-04T01:10:10.824Z,-0.5
2018-02-04T01:11:30.731Z,-0.5
2018-02-04T01:12:55.615Z,-0.5
2018-02-04T01:14:15.511Z,-0.5
2018-02-04T01:15:37.912Z,-0.5
2018-02-04T01:16:57.732Z,-0.5
2018-02-04T01:18:17.557Z,-0.5
2018-02-04T01:19:37.375Z,-0.5
2018-02-04T01:20:59.778Z,-0.6
2018-02-04T01:22:34.798Z,-0.6
2018-02-04T01:24:04.765Z,-0.7
2018-02-04T01:25:27.127Z,-0.7
2018-02-04T01:26:46.980Z,-0.7
2018-02-04T01:28:06.812Z,-0.7
2018-02-04T01:29:31.697Z,-0.8
2018-02-04T01:30:51.563Z,-0.9
2018-02-04T01:32:11.414Z,-0.9
2018-02-04T01:33:36.363Z,-0.8
2018-02-04T01:34:58.749Z,-0.8
2018-02-04T01:36:23.642Z,-0.8
2018-02-04T01:37:43.483Z,-0.9
2018-02-04T01:39:03.342Z,-0.9
2018-02-04T01:40:23.181Z,-0.9
2018-02-04T01:41:48.071Z,-1
2018-02-04T01:43:07.948Z,-1
2018-02-04T01:44:27.777Z,-1.1
2018-02-04T01:45:50.157Z,-1.1
2018-02-04T01:47:12.562Z,-1.1
2018-02-04T01:48:32.426Z,-1.1
2018-02-04T01:49:54.827Z,-1.1
2018-02-04T01:51:24.812Z,-1
2018-02-04T01:52:44.667Z,-1
2018-02-04T01:54:04.502Z,-1
2018-02-04T01:55:24.378Z,-0.9
2018-02-04T01:56:44.189Z,-0.9
2018-02-04T01:58:04.055Z,-0.8
2018-02-04T01:59:23.892Z,-0.7
2018-02-04T02:00:43.715Z,-0.7
2018-02-04T02:02:03.538Z,-0.7
2018-02-04T02:03:23.366Z,-0.7
2018-02-04T02:04:50.820Z,-0.7
2018-02-04T02:06:10.654Z,-0.7
2018-02-04T02:07:30.511Z,-0.7
2018-02-04T02:08:50.391Z,-0.7
2018-02-04T02:10:15.344Z,-0.7
2018-02-04T02:12:05.575Z,-0.6
2018-02-04T02:13:25.487Z,-0.6
2018-02-04T02:14:45.361Z,-0.6
2018-02-04T02:16:07.742Z,-0.5
2018-02-04T02:17:35.149Z,-0.5
2018-02-04T02:18:54.977Z,-0.4
2018-02-04T02:20:14.812Z,-0.4
2018-02-04T02:21:34.653Z,-0.3
2018-02-04T02:22:54.484Z,-0.2
2018-02-04T02:24:16.888Z,-0.2
2018-02-04T02:25:39.286Z,-0.2
2018-02-04T02:26:59.114Z,-0.2
2018-02-04T02:28:18.941Z,-0.2
2018-02-04T02:29:41.324Z,-0.2
2018-02-04T02:31:01.216Z,-0.2
2018-02-04T02:32:23.586Z,-0.2
2018-02-04T02:33:48.480Z,-0.3
2018-02-04T02:35:08.342Z,-0.4
2018-02-04T02:36:28.176Z,-0.5
2018-02-04T02:37:50.531Z,-0.5
2018-02-04T02:39:12.942Z,-0.5
2018-02-04T02:40:45.451Z,-0.5
2018-02-04T02:42:05.264Z,-0.5
2018-02-04T02:43:40.305Z,-0.5
2018-02-04T02:45:07.725Z,-0.6
2018-02-04T02:46:27.561Z,-0.6
2018-02-04T02:47:47.403Z,-0.7
2018-02-04T02:49:17.382Z,-0.7
2018-02-04T02:50:44.848Z,-0.7
2018-02-04T02:52:04.686Z,-0.7
2018-02-04T02:53:27.094Z,-0.6
2018-02-04T02:54:46.943Z,-0.6
2018-02-04T02:56:09.341Z,-0.6
2018-02-04T02:57:29.208Z,-0.6
2018-02-04T02:58:54.141Z,-0.5
2018-02-04T03:00:13.966Z,-0.5
2018-02-04T03:01:38.919Z,-0.5
2018-02-04T03:03:01.355Z,-0.5
2018-02-04T03:04:21.203Z,-0.5
2018-02-04T03:05:43.542Z,-0.5
2018-02-04T03:07:05.928Z,-0.5
2018-02-04T03:08:33.408Z,-0.4
2018-02-04T03:10:00.884Z,-0.4
2018-02-04T03:11:20.766Z,-0.4
2018-02-04T03:12:50.725Z,-0.4
2018-02-04T03:14:10.544Z,-0.3
2018-02-04T03:15:30.430Z,-0.3
2018-02-04T03:16:55.318Z,-0.3
2018-02-04T03:18:25.282Z,-0.3
2018-02-04T03:19:47.659Z,-0.3
2018-02-04T03:21:07.509Z,-0.4
2018-02-04T03:22:32.434Z,-0.3
2018-02-04T03:23:59.875Z,-0.3
2018-02-04T03:25:19.707Z,-0.3
2018-02-04T03:26:39.514Z,-0.3
2018-02-04T03:28:09.518Z,-0.3
2018-02-04T03:29:31.919Z,-0.3
2018-02-04T03:30:51.738Z,-0.3
2018-02-04T03:32:31.887Z,-0.3
2018-02-04T03:34:01.832Z,-0.3
2018-02-04T03:35:26.770Z,-0.2
2018-02-04T03:36:54.182Z,-0.2
2018-02-04T03:38:16.586Z,-0.2
2018-02-04T03:39:43.992Z,-0.4
2018-02-04T03:41:21.663Z,-0.4
2018-02-04T03:42:41.578Z,-0.4
2018-02-04T03:44:03.970Z,-0.3
2018-02-04T03:45:26.355Z,-0.3
2018-02-04T03:46:48.701Z,-0.3
2018-02-04T03:48:11.100Z,-0.2
2018-02-04T03:49:30.957Z,-0.2
2018-02-04T03:50:50.812Z,-0.1
2018-02-04T03:52:10.662Z,-0.1
2018-02-04T03:53:35.559Z,-0.2
2018-02-04T03:54:57.992Z,-0.3
2018-02-04T03:56:20.363Z,-0.4
2018-02-04T03:57:40.175Z,-0.3
2018-02-04T03:58:59.990Z,-0.3
2018-02-04T04:00:24.890Z,-0.3
2018-02-04T04:01:47.260Z,-0.2
2018-02-04T04:03:09.668Z,-0.2
2018-02-04T04:04:32.041Z,-0.1
2018-02-04T04:05:56.939Z,-0.1
2018-02-04T04:07:19.335Z,-0.1
2018-02-04T04:08:41.747Z,-0.1
2018-02-04T04:10:06.679Z,-0.1
2018-02-04T04:11:29.048Z,-0.1
2018-02-04T04:12:54.000Z,-0.2
2018-02-04T04:14:18.916Z,-0.2
2018-02-04T04:15:38.794Z,-0.2
2018-02-04T04:16:58.614Z,-0.3
2018-02-04T04:18:18.433Z,-0.3
2018-02-04T04:19:40.846Z,-0.3
2018-02-04T04:21:05.733Z,-0.3
2018-02-04T04:22:33.192Z,-0.3
2018-02-04T04:24:00.615Z,-0.3
2018-02-04T04:25:20.463Z,-0.3
2018-02-04T04:26:42.878Z,-0.3
2018-02-04T04:28:02.737Z,-0.3
2018-02-04T04:29:27.645Z,-0.3
2018-02-04T04:30:47.503Z,-0.3
2018-02-04T04:32:12.419Z,-0.2
2018-02-04T04:33:32.240Z,-0.2
2018-02-04T04:34:52.073Z,-0.3
2018-02-04T04:36:16.986Z,-0.3
2018-02-04T04:37:36.845Z,-0.3
2018-02-04T04:38:59.196Z,-0.3
2018-02-04T04:40:19.020Z,-0.3
2018-02-04T04:41:41.393Z,-0.3
2018-02-04T04:43:08.867Z,-0.2
2018-02-04T04:44:28.691Z,-0.2
2018-02-04T04:45:51.116Z,-0.2
2018-02-04T04:47:11.028Z,-0.3
2018-02-04T04:48:33.397Z,-0.3
2018-02-04T04:49:55.775Z,-0.3
2018-02-04T04:51:15.602Z,-0.3
2018-02-04T04:52:35.476Z,-0.3
2018-02-04T04:53:55.354Z,-0.3
2018-02-04T04:55:15.197Z,-0.3
2018-02-04T04:56:42.595Z,-0.3
2018-02-04T04:58:02.407Z,-0.5
2018-02-04T04:59:24.824Z,-0.5
2018-02-04T05:00:47.200Z,-0.5
2018-02-04T05:02:12.127Z,-0.4
2018-02-04T05:03:34.464Z,-0.5
2018-02-04T05:05:01.875Z,-0.6
2018-02-04T05:06:24.229Z,-0.5
2018-02-04T05:07:46.639Z,-0.5
2018-02-04T05:09:06.504Z,-0.6
2018-02-04T05:10:28.898Z,-0.6
2018-02-04T05:11:48.769Z,-0.5
2018-02-04T05:13:08.590Z,-0.6
2018-02-04T05:14:28.437Z,-0.5
2018-02-04T05:15:55.937Z,-0.5
2018-02-04T05:17:15.812Z,-0.5
2018-02-04T05:18:35.667Z,-0.4
2018-02-04T05:19:58.038Z,-0.4
2018-02-04T05:21:17.864Z,-0.4
2018-02-04T05:22:37.705Z,-0.4
2018-02-04T05:24:00.112Z,-0.5
2018-02-04T05:25:19.996Z,-0.5
2018-02-04T05:26:39.819Z,-0.5
2018-02-04T05:27:59.687Z,-0.6
2018-02-04T05:29:24.579Z,-0.5
2018-02-04T05:30:44.411Z,-0.5
2018-02-04T05:32:06.760Z,-0.5
2018-02-04T05:33:26.621Z,-0.6
2018-02-04T05:34:49.017Z,-0.5
2018-02-04T05:36:08.830Z,-0.5
2018-02-04T05:37:28.650Z,-0.5
2018-02-04T05:38:48.472Z,-0.5
2018-02-04T05:40:08.333Z,-0.6
2018-02-04T05:41:28.160Z,-0.6
2018-02-04T05:42:47.996Z,-0.6
2018-02-04T05:44:07.832Z,-0.6
2018-02-04T05:45:27.654Z,-0.7
2018-02-04T05:46:47.493Z,-0.7
2018-02-04T05:48:07.349Z,-0.6
2018-02-04T05:49:27.179Z,-0.7
2018-02-04T05:50:49.546Z,-0.7
2018-02-04T05:52:09.403Z,-0.9
2018-02-04T05:53:31.763Z,-0.9
2018-02-04T05:54:54.111Z,-0.9
2018-02-04T05:56:13.942Z,-0.9
2018-02-04T05:57:41.384Z,-0.9
2018-02-04T05:59:01.247Z,-1
2018-02-04T06:00:26.182Z,-1
2018-02-04T06:01:46.044Z,-1
2018-02-04T06:03:05.914Z,-1
2018-02-04T06:04:33.353Z,-1
2018-02-04T06:05:53.182Z,-1
2018-02-04T06:07:20.644Z,-1
2018-02-04T06:08:40.484Z,-1
2018-02-04T06:10:00.360Z,-1.1
2018-02-04T06:11:25.233Z,-1.1
2018-02-04T06:12:47.590Z,-1.1
2018-02-04T06:14:07.461Z,-1
2018-02-04T06:15:27.295Z,-1
2018-02-04T06:16:47.116Z,-1
2018-02-04T06:18:06.990Z,-1
2018-02-04T06:19:37.025Z,-1
2018-02-04T06:21:06.968Z,-1.1
2018-02-04T06:22:31.860Z,-1.1
2018-02-04T06:23:54.265Z,-1.1
2018-02-04T06:25:16.665Z,-1.1
2018-02-04T06:26:39.067Z,-1.1
2018-02-04T06:28:01.469Z,-1
2018-02-04T06:29:23.866Z,-1.1
2018-02-04T06:30:48.774Z,-1.1
2018-02-04T06:32:08.607Z,-1.1
2018-02-04T06:33:28.440Z,-1
2018-02-04T06:34:48.294Z,-1
2018-02-04T06:36:08.140Z,-1
2018-02-04T06:37:27.971Z,-0.9
2018-02-04T06:38:50.317Z,-0.9
2018-02-04T06:40:10.151Z,-0.9
2018-02-04T06:41:32.520Z,-0.9
2018-02-04T06:42:52.355Z,-0.9
2018-02-04T06:44:12.206Z,-0.8
2018-02-04T06:45:32.025Z,-0.8
2018-02-04T06:46:51.913Z,-0.8
2018-02-04T06:48:14.266Z,-0.9
2018-02-04T06:49:34.097Z,-0.9
2018-02-04T06:50:53.935Z,-0.8
2018-02-04T06:52:16.374Z,-0.8
2018-02-04T06:53:36.326Z,-0.8
2018-02-04T06:54:56.246Z,-0.8
2018-02-04T06:56:18.598Z,-0.8
2018-02-04T06:57:38.418Z,-0.9
2018-02-04T06:59:00.793Z,-0.9
2018-02-04T07:00:20.615Z,-0.9
2018-02-04T07:01:40.470Z,-1
2018-02-04T07:03:00.360Z,-0.9
2018-02-04T07:04:20.190Z,-1
2018-02-04T07:05:42.549Z,-1
2018-02-04T07:07:15.033Z,-0.9
2018-02-04T07:08:34.867Z,-0.9
2018-02-04T07:10:07.341Z,-0.9
2018-02-04T07:11:32.269Z,-0.9
2018-02-04T07:12:59.694Z,-0.8
2018-02-04T07:14:19.531Z,-0.8
2018-02-04T07:15:41.929Z,-0.8
2018-02-04T07:17:04.277Z,-0.9
2018-02-04T07:18:24.167Z,-0.9
2018-02-04T07:19:43.980Z,-0.9
2018-02-04T07:21:11.466Z,-0.9
2018-02-04T07:22:36.426Z,-0.9
2018-02-04T07:23:56.353Z,-0.8
2018-02-04T07:25:16.213Z,-0.9
2018-02-04T07:26:38.579Z,-0.9
2018-02-04T07:28:00.983Z,-0.9
2018-02-04T07:29:20.848Z,-0.9
2018-02-04T07:30:40.687Z,-1
2018-02-04T07:32:03.047Z,-1
2018-02-04T07:33:25.452Z,-1
2018-02-04T07:34:45.298Z,-1
2018-02-04T07:36:12.726Z,-1.1
2018-02-04T07:37:35.082Z,-1.1
2018-02-04T07:38:54.900Z,-1.1
2018-02-04T07:40:17.307Z,-1
2018-02-04T07:41:39.654Z,-1.1
2018-02-04T07:43:02.041Z,-1.1
2018-02-04T07:44:21.888Z,-1.1
2018-02-04T07:45:46.775Z,-1.2
2018-02-04T07:47:06.630Z,-1.2
2018-02-04T07:48:26.509Z,-1.2
2018-02-04T07:49:46.393Z,-1.3
2018-02-04T07:51:06.271Z,-1.2
2018-02-04T07:52:28.684Z,-1.2
2018-02-04T07:53:51.113Z,-1.2
2018-02-04T07:55:18.527Z,-1
2018-02-04T07:56:40.965Z,-1
2018-02-04T07:58:05.890Z,-1
2018-02-04T07:59:33.328Z,-1
2018-02-04T08:00:53.150Z,-1
2018-02-04T08:02:15.547Z,-1
2018-02-04T08:03:35.403Z,-0.9
2018-02-04T08:04:55.245Z,-1
2018-02-04T08:06:17.651Z,-0.8
2018-02-04T08:07:37.473Z,-0.8
2018-02-04T08:08:59.896Z,-0.8
2018-02-04T08:10:29.880Z,-0.7
2018-02-04T08:11:49.752Z,-0.7
2018-02-04T08:13:12.103Z,-0.7
2018-02-04T08:14:31.923Z,-0.7
2018-02-04T08:15:51.758Z,-0.6
2018-02-04T08:17:11.606Z,-0.6
2018-02-04T08:18:31.478Z,-0.5
2018-02-04T08:19:53.892Z,-0.6
2018-02-04T08:21:13.719Z,-0.5
2018-02-04T08:23:03.943Z,-0.4
2018-02-04T08:24:23.769Z,-0.2
2018-02-04T08:25:43.640Z,-0.1
2018-02-04T08:27:08.563Z,-0.1
2018-02-04T08:28:28.432Z,-0.1
2018-02-04T08:29:48.354Z,-0.3
2018-02-04T08:31:13.258Z,-0.3
2018-02-04T08:32:38.213Z,-0.1
2018-02-04T08:34:00.550Z,0.1
2018-02-04T08:35:22.945Z,0.2
2018-02-04T08:36:55.427Z,0.2
2018-02-04T08:38:17.758Z,0.3
2018-02-04T08:39:42.666Z,0.1
2018-02-04T08:41:12.587Z,0
2018-02-04T08:42:42.531Z,0
2018-02-04T08:44:04.878Z,-0.1
2018-02-04T08:45:27.267Z,-0.1
2018-02-04T08:46:47.119Z,-0.1
2018-02-04T08:48:06.978Z,-0.3
2018-02-04T08:49:42.000Z,-0.5
2018-02-04T08:51:09.434Z,-0.4
2018-02-04T08:52:31.789Z,-0.5
2018-02-04T08:53:59.215Z,-0.5
2018-02-04T08:55:19.107Z,-0.5
2018-02-04T08:56:38.934Z,-0.5
2018-02-04T08:57:58.811Z,-0.5
2018-02-04T08:59:26.271Z,-0.5
2018-02-04T09:00:51.192Z,-0.5
2018-02-04T09:02:11.086Z,-0.4
2018-02-04T09:03:30.950Z,-0.5
2018-02-04T09:04:50.808Z,-0.5
2018-02-04T09:06:13.163Z,-0.5
2018-02-04T09:07:38.050Z,-0.4
2018-02-04T09:08:57.921Z,-0.3
2018-02-04T09:10:17.744Z,-0.2
2018-02-04T09:11:40.094Z,-0.2
2018-02-04T09:13:04.978Z,-0.2
2018-02-04T09:14:24.801Z,-0.1
2018-02-04T09:15:47.160Z,0
2018-02-04T09:17:06.964Z,0.1
2018-02-04T09:18:26.816Z,-0.1
2018-02-04T09:19:46.689Z,-0.1
2018-02-04T09:21:09.050Z,-0.1
2018-02-04T09:22:28.876Z,-0.3
2018-02-04T09:23:51.331Z,-0.2
2018-02-04T09:25:11.197Z,-0.3
2018-02-04T09:26:31.061Z,-0.2
2018-02-04T09:27:50.959Z,-0.2
2018-02-04T09:29:18.413Z,-0.2
2018-02-04T09:30:40.792Z,0
2018-02-04T09:32:03.203Z,-0.2
2018-02-04T09:33:23.030Z,-0.1
2018-02-04T09:34:42.871Z,0
2018-02-04T09:36:02.700Z,0
2018-02-04T09:37:25.060Z,-0.1
2018-02-04T09:38:44.900Z,-0.1
2018-02-04T09:40:07.306Z,-0.1
2018-02-04T09:41:27.160Z,0.2
2018-02-04T09:42:46.974Z,0.3
2018-02-04T09:44:06.771Z,0.4
2018-02-04T09:45:29.121Z,0.5
2018-02-04T09:46:54.007Z,0.6
2018-02-04T09:48:16.393Z,0.6
2018-02-04T09:49:38.750Z,0.7
2018-02-04T09:50:58.648Z,0.6
2018-02-04T09:52:23.532Z,0.5
2018-02-04T09:53:48.395Z,0.7
2018-02-04T09:55:08.200Z,0.6
2018-02-04T09:56:28.012Z,0.8
2018-02-04T09:57:52.904Z,0.9
2018-02-04T09:59:12.771Z,1.1
2018-02-04T10:00:32.583Z,1
2018-02-04T10:01:52.437Z,1.2
2018-02-04T10:03:14.774Z,1.3
2018-02-04T10:04:39.662Z,1.1
2018-02-04T10:05:59.470Z,1
2018-02-04T10:07:19.339Z,0.9
2018-02-04T10:08:39.150Z,1
2018-02-04T10:09:58.964Z,1
2018-02-04T10:11:23.891Z,0.9
2018-02-04T10:12:53.809Z,0.8
2018-02-04T10:14:16.195Z,0.9
2018-02-04T10:15:41.125Z,0.9
2018-02-04T10:17:03.471Z,1.1
2018-02-04T10:18:23.325Z,1.1
2018-02-04T10:19:50.733Z,1
2018-02-04T10:21:10.569Z,1
2018-02-04T10:22:30.472Z,1.1
2018-02-04T10:23:50.330Z,1.1
2018-02-04T10:25:12.662Z,1
2018-02-04T10:26:42.639Z,1
2018-02-04T10:28:04.994Z,1
2018-02-04T10:29:24.793Z,0.9
2018-02-04T10:30:44.599Z,0.6
2018-02-04T10:32:04.425Z,0.4
2018-02-04T10:33:24.229Z,0.3
2018-02-04T10:34:44.032Z,0.3
2018-02-04T10:36:03.843Z,0.3
2018-02-04T10:37:36.366Z,0.4
2018-02-04T10:39:01.268Z,0.5
2018-02-04T10:40:23.624Z,0.5
2018-02-04T10:41:45.999Z,0.5
2018-02-04T10:43:05.898Z,0.6
2018-02-04T10:44:28.227Z,0.7
2018-02-04T10:45:48.027Z,0.6
2018-02-04T10:47:07.844Z,0.5
2018-02-04T10:48:32.740Z,0.4
2018-02-04T10:49:55.091Z,0.2
2018-02-04T10:51:19.956Z,0.2
2018-02-04T10:52:42.292Z,0.1
2018-02-04T10:54:02.148Z,0.1
2018-02-04T10:55:21.947Z,0.3
2018-02-04T10:56:44.272Z,0.2
2018-02-04T10:58:06.678Z,0.1
2018-02-04T10:59:36.649Z,0.1
2018-02-04T11:00:56.516Z,0.2
2018-02-04T11:02:18.909Z,0.1
2018-02-04T11:03:38.783Z,0.2
2018-02-04T11:05:06.229Z,0.1
2018-02-04T11:06:28.584Z,0
2018-02-04T11:07:48.424Z,-0.1
2018-02-04T11:09:08.302Z,0
2018-02-04T11:10:28.148Z,0.1
2018-02-04T11:11:50.519Z,0.1
2018-02-04T11:13:15.428Z,0
2018-02-04T11:14:35.245Z,0.1
2018-02-04T11:15:55.058Z,0.1
2018-02-04T11:17:19.993Z,0
2018-02-04T11:18:42.356Z,0
2018-02-04T11:20:02.170Z,0.2
2018-02-04T11:21:29.580Z,0.2
2018-02-04T11:22:49.443Z,0.2
2018-02-04T11:24:16.853Z,0.3
2018-02-04T11:25:36.675Z,0.1
2018-02-04T11:26:59.060Z,0.1
2018-02-04T11:28:18.871Z,0.1
2018-02-04T11:29:41.242Z,0
2018-02-04T11:31:01.134Z,0
2018-02-04T11:32:31.128Z,0
2018-02-04T11:33:53.539Z,0
2018-02-04T11:35:18.446Z,0
2018-02-04T11:36:45.928Z,-0.2
2018-02-04T11:38:15.942Z,-0.2
2018-02-04T11:39:38.286Z,-0.1
2018-02-04T11:41:03.184Z,-0.1
2018-02-04T11:42:23.022Z,-0.1
2018-02-04T11:43:42.823Z,0.1
2018-02-04T11:45:05.191Z,0.1
2018-02-04T11:46:25.008Z,0.2
2018-02-04T11:47:44.824Z,0.1
2018-02-04T11:49:04.672Z,0
2018-02-04T11:50:32.069Z,0.1
2018-02-04T11:51:51.902Z,0
2018-02-04T11:53:11.737Z,0
2018-02-04T11:54:41.681Z,0.1
2018-02-04T11:56:01.542Z,0
2018-02-04T11:57:21.453Z,0
2018-02-04T11:58:41.342Z,0.1
2018-02-04T12:00:03.692Z,0.1
2018-02-04T12:01:23.504Z,0.1
2018-02-04T12:02:45.897Z,-0.1
2018-02-04T12:04:13.311Z,-0.1
2018-02-04T12:05:40.788Z,0
2018-02-04T12:07:08.209Z,0
2018-02-04T12:08:28.097Z,-0.1
2018-02-04T12:09:50.466Z,-0.1
2018-02-04T12:11:10.355Z,-0.1
2018-02-04T12:12:30.202Z,-0.1
2018-02-04T12:13:50.034Z,-0.2
2018-02-04T12:15:19.991Z,-0.2
2018-02-04T12:16:39.818Z,-0.3
2018-02-04T12:17:59.661Z,-0.1
2018-02-04T12:19:19.511Z,-0.1
2018-02-04T12:20:39.359Z,-0.3
2018-02-04T12:21:59.173Z,-0.4
2018-02-04T12:23:29.134Z,-0.4
2018-02-04T12:24:48.960Z,-0.3
2018-02-04T12:26:13.896Z,-0.2
2018-02-04T12:27:36.302Z,-0.3
2018-02-04T12:28:56.204Z,-0.3
2018-02-04T12:30:21.135Z,-0.5
2018-02-04T12:31:41.035Z,-0.7
2018-02-04T12:33:13.506Z,-0.7
2018-02-04T12:34:46.072Z,-0.7
2018-02-04T12:36:16.091Z,-0.6
2018-02-04T12:37:35.975Z,-0.6
2018-02-04T12:38:55.835Z,-0.5
2018-02-04T12:40:15.701Z,-0.5
2018-02-04T12:41:38.055Z,-0.4
2018-02-04T12:43:02.976Z,-0.5
2018-02-04T12:44:22.791Z,-0.6
2018-02-04T12:45:42.608Z,-0.5
2018-02-04T12:47:02.445Z,-0.4
2018-02-04T12:48:29.866Z,-0.6
2018-02-04T12:49:57.302Z,-0.5
2018-02-04T12:51:19.671Z,-0.6
2018-02-04T12:52:39.552Z,-0.5
2018-02-04T12:54:01.932Z,-0.4
2018-02-04T12:55:29.401Z,-0.6
2018-02-04T12:56:51.754Z,-0.7
2018-02-04T12:58:11.668Z,-0.5
2018-02-04T12:59:36.575Z,-0.6
2018-02-04T13:00:56.437Z,-0.5
2018-02-04T13:02:23.872Z,-0.5
2018-02-04T13:03:43.699Z,-0.5
2018-02-04T13:05:03.538Z,-0.4
2018-02-04T13:06:23.371Z,-0.4
2018-02-04T13:07:43.185Z,-0.5
2018-02-04T13:09:03.023Z,-0.7
2018-02-04T13:10:30.460Z,-0.6
2018-02-04T13:11:50.325Z,-0.5
2018-02-04T13:13:15.274Z,-0.5
2018-02-04T13:14:37.635Z,-0.5
2018-02-04T13:16:17.715Z,-0.6
2018-02-04T13:17:42.653Z,-0.6
2018-02-04T13:19:05.016Z,-0.5
2018-02-04T13:20:24.846Z,-0.5
2018-02-04T13:21:44.678Z,-0.6
2018-02-04T13:23:09.562Z,-0.6
2018-02-04T13:24:31.953Z,-0.7
2018-02-04T13:25:54.327Z,-0.5
2018-02-04T13:27:14.209Z,-0.4
2018-02-04T13:28:34.041Z,-0.5
2018-02-04T13:29:53.862Z,-0.4
2018-02-04T13:31:21.352Z,-0.5
2018-02-04T13:32:43.705Z,-0.5
2018-02-04T13:34:16.256Z,-0.6
2018-02-04T13:35:36.145Z,-0.5
2018-02-04T13:36:56.013Z,-0.5
2018-02-04T13:38:15.887Z,-0.4
2018-02-04T13:39:40.788Z,-0.5
2018-02-04T13:41:00.613Z,-0.7
2018-02-04T13:42:28.115Z,-0.5
2018-02-04T13:43:47.950Z,-0.8
2018-02-04T13:45:12.901Z,-0.9
2018-02-04T13:46:32.769Z,-0.9
2018-02-04T13:47:52.578Z,-0.8
2018-02-04T13:49:12.456Z,-0.8
2018-02-04T13:50:32.337Z,-0.8
2018-02-04T13:52:02.324Z,-0.8
2018-02-04T13:53:24.738Z,-0.9
2018-02-04T13:54:44.574Z,-0.9
2018-02-04T13:56:04.449Z,-0.9
2018-02-04T13:57:34.393Z,-0.9
2018-02-04T13:58:54.219Z,-0.8
2018-02-04T14:00:14.091Z,-0.8
2018-02-04T14:01:49.098Z,-1
2018-02-04T14:03:11.488Z,-0.9
2018-02-04T14:04:31.381Z,-0.8
2018-02-04T14:05:53.734Z,-0.7
2018-02-04T14:07:13.588Z,-0.9
2018-02-04T14:08:33.453Z,-1.1
2018-02-04T14:09:53.314Z,-1.1
2018-02-04T14:11:13.145Z,-1.1
2018-02-04T14:12:32.984Z,-1.2
2018-02-04T14:13:55.390Z,-1.1
2018-02-04T14:15:17.751Z,-1.1
2018-02-04T14:16:37.589Z,-1.2
2018-02-04T14:17:57.412Z,-1.3
2018-02-04T14:19:19.760Z,-1.3
2018-02-04T14:20:44.706Z,-1.2
2018-02-04T14:22:04.596Z,-1.2
2018-02-04T14:23:32.038Z,-1.3
2018-02-04T14:24:51.860Z,-1.2
2018-02-04T14:26:14.210Z,-1.2
2018-02-04T14:27:34.038Z,-1.3
2018-02-04T14:28:58.937Z,-1.3
2018-02-04T14:30:18.804Z,-1.2
2018-02-04T14:31:56.388Z,-1.3
2018-02-04T14:33:16.248Z,-1.3
2018-02-04T14:34:43.669Z,-1.3
2018-02-04T14:36:06.084Z,-1.4
2018-02-04T14:37:25.941Z,-1.4
2018-02-04T14:38:48.333Z,-1.3
2018-02-04T14:40:08.149Z,-1.3
2018-02-04T14:41:30.570Z,-1.2
2018-02-04T14:42:53.031Z,-1.2
2018-02-04T14:44:15.401Z,-1.2
2018-02-04T14:45:45.361Z,-1.3
2018-02-04T14:47:05.201Z,-1.4
2018-02-04T14:48:32.625Z,-1.4
2018-02-04T14:49:57.578Z,-1.5
2018-02-04T14:51:17.458Z,-1.6
2018-02-04T14:52:37.276Z,-1.6
2018-02-04T14:54:04.724Z,-1.6
2018-02-04T14:55:29.613Z,-1.6
2018-02-04T14:56:52.015Z,-1.5
2018-02-04T14:58:11.848Z,-1.5
2018-02-04T14:59:34.202Z,-1.5
2018-02-04T15:00:56.649Z,-1.5
2018-02-04T15:02:16.494Z,-1.5
2018-02-04T15:03:36.401Z,-1.6
2018-02-04T15:04:56.258Z,-1.5
2018-02-04T15:06:21.196Z,-1.6
2018-02-04T15:07:41.044Z,-1.6
2018-02-04T15:09:00.900Z,-1.6
2018-02-04T15:10:20.804Z,-1.5
2018-02-04T15:11:45.702Z,-1.5
2018-02-04T15:13:05.532Z,-1.5
2018-02-04T15:14:30.472Z,-1.5
2018-02-04T15:15:52.870Z,-1.5
2018-02-04T15:17:12.681Z,-1.5
2018-02-04T15:18:35.019Z,-1.7
2018-02-04T15:19:54.841Z,-1.7
2018-02-04T15:21:19.732Z,-1.7
2018-02-04T15:22:42.119Z,-1.6
2018-02-04T15:24:01.960Z,-1.5
2018-02-04T15:25:34.457Z,-1.6
2018-02-04T15:26:54.270Z,-1.7
2018-02-04T15:28:19.171Z,-1.7
2018-02-04T15:29:39.018Z,-1.6
2018-02-04T15:31:01.399Z,-1.6
2018-02-04T15:32:21.297Z,-1.6
2018-02-04T15:33:53.783Z,-1.5
2018-02-04T15:35:13.619Z,-1.6
2018-02-04T15:36:33.432Z,-1.6
2018-02-04T15:37:53.254Z,-1.6
2018-02-04T15:39:13.093Z,-1.5
2018-02-04T15:40:32.909Z,-1.5
2018-02-04T15:41:52.788Z,-1.6
2018-02-04T15:43:35.410Z,-1.6
2018-02-04T15:44:55.230Z,-1.7
2018-02-04T15:46:15.067Z,-1.7
2018-02-04T15:47:34.900Z,-1.7
2018-02-04T15:48:54.780Z,-1.7
2018-02-04T15:50:14.620Z,-1.6
2018-02-04T15:51:39.557Z,-1.6
2018-02-04T15:52:59.389Z,-1.7
2018-02-04T15:54:19.222Z,-1.7
2018-02-04T15:55:41.649Z,-1.6
2018-02-04T15:57:04.005Z,-1.7
2018-02-04T15:58:23.841Z,-1.7
2018-02-04T15:59:43.661Z,-1.7
2018-02-04T16:01:03.501Z,-1.7
2018-02-04T16:02:25.913Z,-1.6
2018-02-04T16:03:50.821Z,-1.6
2018-02-04T16:05:10.667Z,-1.6
2018-02-04T16:06:30.507Z,-1.5
2018-02-04T16:08:00.505Z,-1.6
2018-02-04T16:09:25.469Z,-1.6
2018-02-04T16:10:45.349Z,-1.6
2018-02-04T16:12:07.720Z,-1.6
2018-02-04T16:13:30.061Z,-1.6
2018-02-04T16:14:54.963Z,-1.6
2018-02-04T16:16:14.798Z,-1.7
2018-02-04T16:17:42.236Z,-1.6
2018-02-04T16:19:02.122Z,-1.6
2018-02-04T16:20:24.465Z,-1.6
2018-02-04T16:21:46.892Z,-1.6
2018-02-04T16:23:06.766Z,-1.6
2018-02-04T16:24:26.651Z,-1.6
2018-02-04T16:25:46.588Z,-1.6
2018-02-04T16:27:16.605Z,-1.7
2018-02-04T16:28:39.023Z,-1.7
2018-02-04T16:29:58.846Z,-1.7
2018-02-04T16:31:21.264Z,-1.7
2018-02-04T16:32:41.125Z,-1.8
2018-02-04T16:34:00.981Z,-1.8
2018-02-04T16:35:23.334Z,-1.8
2018-02-04T16:36:43.162Z,-1.8
2018-02-04T16:38:13.114Z,-1.7
2018-02-04T16:39:38.005Z,-1.7
2018-02-04T16:41:02.888Z,-1.7
2018-02-04T16:42:27.814Z,-1.7
2018-02-04T16:43:47.642Z,-1.6
2018-02-04T16:45:12.532Z,-1.6
2018-02-04T16:46:37.475Z,-1.7
2018-02-04T16:47:57.359Z,-1.7
2018-02-04T16:49:19.770Z,-1.7
2018-02-04T16:50:42.170Z,-1.7
2018-02-04T16:52:02.011Z,-1.7
2018-02-04T16:53:31.985Z,-1.7
2018-02-04T16:54:56.913Z,-1.7
2018-02-04T16:56:16.736Z,-1.7
2018-02-04T16:57:36.578Z,-1.7
2018-02-04T16:59:09.081Z,-1.7
2018-02-04T17:00:28.911Z,-1.8
2018-02-04T17:01:48.747Z,-1.7
2018-02-04T17:03:11.162Z,-1.7
2018-02-04T17:04:33.532Z,-1.6
2018-02-04T17:05:53.379Z,-1.6
2018-02-04T17:07:13.262Z,-1.6
2018-02-04T17:08:33.158Z,-1.7
2018-02-04T17:09:52.994Z,-1.7
2018-02-04T17:11:12.848Z,-1.7
2018-02-04T17:12:32.672Z,-1.7
2018-02-04T17:13:52.564Z,-1.8
2018-02-04T17:15:12.428Z,-1.8
2018-02-04T17:16:34.784Z,-1.8
2018-02-04T17:18:04.766Z,-1.8
2018-02-04T17:19:24.600Z,-1.8
2018-02-04T17:20:44.415Z,-1.8
2018-02-04T17:22:24.473Z,-1.8
2018-02-04T17:23:46.876Z,-1.8
2018-02-04T17:25:09.246Z,-1.8
2018-02-04T17:26:31.697Z,-1.8
2018-02-04T17:27:51.610Z,-1.8
2018-02-04T17:29:16.524Z,-1.7
2018-02-04T17:30:36.377Z,-1.7
2018-02-04T17:31:56.239Z,-1.7
2018-02-04T17:33:16.092Z,-1.7
2018-02-04T17:34:35.979Z,-1.8
2018-02-04T17:35:55.833Z,-1.8
2018-02-04T17:37:15.676Z,-1.7
2018-02-04T17:38:40.592Z,-1.8
2018-02-04T17:40:03.011Z,-1.8
2018-02-04T17:41:22.839Z,-1.8
2018-02-04T17:42:42.671Z,-2
2018-02-04T17:44:07.550Z,-1.9
2018-02-04T17:45:40.031Z,-1.9
2018-02-04T17:47:07.449Z,-1.9
2018-02-04T17:48:27.278Z,-1.8
2018-02-04T17:49:52.181Z,-1.8
2018-02-04T17:51:11.994Z,-1.8
2018-02-04T17:52:41.947Z,-1.8
2018-02-04T17:54:01.830Z,-1.8
2018-02-04T17:55:34.300Z,-1.9
2018-02-04T17:56:54.201Z,-2
2018-02-04T17:58:14.082Z,-2
2018-02-04T17:59:38.974Z,-2
2018-02-04T18:01:01.352Z,-2
2018-02-04T18:02:21.205Z,-1.9
2018-02-04T18:03:46.130Z,-1.9
2018-02-04T18:05:05.986Z,-1.9
2018-02-04T18:06:30.956Z,-1.9
2018-02-04T18:07:50.811Z,-2
2018-02-04T18:09:15.745Z,-1.9
2018-02-04T18:10:43.179Z,-1.9
2018-02-04T18:12:03.024Z,-2
2018-02-04T18:13:22.861Z,-1.9
2018-02-04T18:14:47.798Z,-1.9
2018-02-04T18:16:07.619Z,-1.9
2018-02-04T18:17:30.027Z,-1.9
2018-02-04T18:18:52.403Z,-1.9
2018-02-04T18:20:12.246Z,-2
2018-02-04T18:21:34.602Z,-2
2018-02-04T18:22:54.418Z,-2
2018-02-04T18:24:16.834Z,-1.9
2018-02-04T18:25:46.793Z,-1.9
2018-02-04T18:27:14.189Z,-1.8
2018-02-04T18:28:34.014Z,-1.9
2018-02-04T18:29:58.917Z,-1.9